Time;durP1;ratioP1;P1;durP2;ratioP2;P2;SDS_P1;SDS_P2;PMS_P1;PMS_P2;Temp;Humidity;BMP_temperature;BMP_pressure;BME280_temperature;BME280_humidity;BME280_pressure;Samples;Min_cycle;Max_cycle;Signal;HPM_P1;HPM_P2
2022/05/01 00:01:27;;;;;;;35.45;26.17;;;5.20;84.20;;;;;;5095660;28;20035;-78
2022/05/01 00:03:53;;;;;;;36.15;26.13;;;5.20;84.20;;;;;;5112642;28;20510;-79
2022/05/01 00:06:19;;;;;;;57.83;36.58;;;5.10;84.30;;;;;;5112474;28;20036;-80
2022/05/01 00:08:45;;;;;;;45.63;33.03;;;5.10;84.30;;;;;;5112569;28;20061;-79
2022/05/01 00:11:12;;;;;;;52.70;34.92;;;5.10;84.40;;;;;;5112425;28;20479;-78
2022/05/01 00:13:39;;;;;;;43.38;27.85;;;5.10;84.30;;;;;;5112736;28;20442;-82
2022/05/01 00:16:05;;;;;;;37.22;27.85;;;5.10;84.30;;;;;;5112682;28;20486;-80
2022/05/01 00:18:30;;;;;;;39.53;26.45;;;5.10;84.40;;;;;;5112720;28;20126;-79
2022/05/01 00:20:56;;;;;;;28.65;21.60;;;5.00;84.30;;;;;;5095338;28;20484;-81
2022/05/01 00:23:22;;;;;;;29.05;22.23;;;5.00;84.50;;;;;;5112304;28;20071;-78
2022/05/01 00:25:48;;;;;;;32.75;22.08;;;5.00;84.40;;;;;;5094590;28;20075;-80
2022/05/01 00:28:14;;;;;;;26.98;20.08;;;5.00;84.50;;;;;;5112328;28;20044;-79
2022/05/01 00:30:41;;;;;;;26.00;18.63;;;5.00;84.40;;;;;;5111923;28;20412;-81
2022/05/01 00:38:37;;;;;;;24.60;17.58;;;4.90;84.50;;;;;;5112118;28;20054;-80
2022/05/01 00:41:07;;;;;;;22.98;17.38;;;4.80;84.50;;;;;;5112068;28;20122;-80
2022/05/01 00:43:51;;;;;;;22.73;18.45;;;4.80;84.50;;;;;;5078524;28;20122;-81
2022/05/01 00:46:20;;;;;;;;;;;4.80;84.60;;;;;;5095547;28;20498;-80
2022/05/01 00:48:46;;;;;;;22.35;16.65;;;4.80;84.90;;;;;;5094916;28;19926;-80
2022/05/01 00:51:11;;;;;;;23.30;17.40;;;4.80;84.70;;;;;;5095239;28;20052;-80
2022/05/01 00:53:37;;;;;;;21.10;16.50;;;4.70;84.70;;;;;;5112326;28;20047;-79
2022/05/01 00:56:03;;;;;;;20.13;17.48;;;4.80;84.60;;;;;;5095036;28;20039;-79
2022/05/01 00:58:30;;;;;;;22.77;17.45;;;4.80;84.60;;;;;;5111969;28;20086;-79
2022/05/01 01:00:56;;;;;;;21.83;17.40;;;4.80;84.60;;;;;;5111874;28;20046;-79
2022/05/01 01:03:22;;;;;;;23.27;17.95;;;4.80;84.60;;;;;;5112134;28;20387;-81
2022/05/01 01:05:48;;;;;;;24.63;17.95;;;4.80;84.60;;;;;;5095008;28;20050;-78
2022/05/01 01:08:14;;;;;;;21.40;18.00;;;4.70;84.60;;;;;;5111882;28;20043;-78
2022/05/01 01:10:39;;;;;;;22.92;17.85;;;4.70;84.60;;;;;;5112063;28;20475;-78
2022/05/01 01:13:05;;;;;;;23.42;18.42;;;4.70;84.70;;;;;;5111815;28;20047;-78
2022/05/01 01:15:32;;;;;;;21.58;17.60;;;4.70;84.80;;;;;;5112089;28;20039;-80
2022/05/01 01:17:58;;;;;;;21.13;18.08;;;4.60;84.80;;;;;;5095216;28;20048;-80
2022/05/01 01:20:26;;;;;;;23.83;17.80;;;4.70;84.80;;;;;;5094878;28;20085;-79
2022/05/01 01:22:57;;;;;;;21.70;17.23;;;4.70;84.90;;;;;;5111811;28;20075;-80
2022/05/01 01:25:31;;;;;;;24.60;18.88;;;4.60;84.90;;;;;;5111992;28;20083;-78
2022/05/01 01:28:02;;;;;;;26.83;19.35;;;4.60;84.90;;;;;;5111855;28;20047;-78
2022/05/01 01:33:24;;;;;;;21.45;17.08;;;4.70;85.00;;;;;;5115004;28;20503;-81
2022/05/01 01:35:53;;;;;;;22.05;17.60;;;4.70;85.30;;;;;;5098634;27;20039;-80
2022/05/01 01:38:19;;;;;;;24.38;18.30;;;4.60;85.20;;;;;;5118827;27;20499;-81
2022/05/01 01:40:51;;;;;;;25.85;19.65;;;4.60;85.30;;;;;;5118644;27;20087;-81
2022/05/01 01:43:31;;;;;;;24.92;18.60;;;4.60;85.20;;;;;;5101794;27;20043;-81
2022/05/01 01:45:57;;;;;;;23.98;18.17;;;4.60;85.10;;;;;;5118696;27;20035;-81
2022/05/01 01:48:23;;;;;;;22.63;18.48;;;4.60;85.30;;;;;;5101572;27;20087;-78
2022/05/01 01:51:12;;;;;;;24.85;18.92;;;4.60;85.30;;;;;;5118857;27;20391;-80
2022/05/01 01:53:38;;;;;;;27.17;19.10;;;4.60;85.50;;;;;;5108081;27;20075;-78
2022/05/01 01:56:07;;;;;;;22.73;18.38;;;4.60;85.60;;;;;;5101524;27;20105;-81
2022/05/01 01:58:34;;;;;;;20.58;16.70;;;4.50;85.60;;;;;;5118730;27;20103;-81
2022/05/01 02:01:00;;;;;;;14.63;12.43;;;4.50;85.70;;;;;;5101426;27;20039;-79
2022/05/01 02:03:26;;;;;;;11.43;8.93;;;4.50;85.80;;;;;;5101507;27;20095;-80
2022/05/01 02:05:53;;;;;;;9.95;8.48;;;4.40;85.80;;;;;;5118292;27;20505;-81
2022/05/01 02:08:19;;;;;;;10.02;7.95;;;4.20;85.70;;;;;;5118132;27;20051;-81
2022/05/01 02:10:46;;;;;;;8.73;7.15;;;4.10;85.60;;;;;;5101150;27;20056;-79
2022/05/01 02:13:13;;;;;;;6.40;5.78;;;4.00;85.60;;;;;;5118155;27;20498;-79
2022/05/01 02:15:39;;;;;;;7.15;5.82;;;3.90;85.60;;;;;;5118161;27;20031;-81
2022/05/01 02:18:06;;;;;;;6.47;5.75;;;3.90;85.60;;;;;;5101028;27;20050;-79
2022/05/01 02:23:17;;;;;;;6.18;5.25;;;3.80;85.50;;;;;;5103798;27;20042;-79
2022/05/01 02:25:43;;;;;;;5.15;4.53;;;3.70;85.30;;;;;;5118216;27;20047;-80
2022/05/01 02:28:10;;;;;;;7.78;5.60;;;3.60;85.30;;;;;;5117791;27;20372;-80
2022/05/01 02:30:37;;;;;;;5.40;4.90;;;3.60;85.60;;;;;;5117830;27;20039;-79
2022/05/01 02:33:03;;;;;;;5.53;4.90;;;3.60;85.90;;;;;;5100967;27;20046;-78
2022/05/01 02:35:29;;;;;;;5.45;4.63;;;3.60;85.70;;;;;;5100895;27;20039;-79
2022/05/01 02:37:54;;;;;;;7.10;5.28;;;3.50;85.50;;;;;;5083940;27;20039;-79
2022/05/01 02:40:20;;;;;;;6.13;5.45;;;3.50;85.50;;;;;;5100668;27;20042;-78
2022/05/01 02:42:46;;;;;;;7.88;5.47;;;3.40;85.60;;;;;;5100602;27;20074;-80
2022/05/01 02:45:11;;;;;;;7.13;5.68;;;3.50;85.70;;;;;;5100861;27;20084;-78
2022/05/01 02:47:37;;;;;;;7.15;5.75;;;3.40;85.60;;;;;;5117044;28;20033;-80
2022/05/01 02:50:03;;;;;;;6.10;5.38;;;3.40;85.60;;;;;;5083325;27;20482;-78
2022/05/01 02:52:29;;;;;;;6.63;5.95;;;3.40;85.70;;;;;;5100807;27;20039;-80
2022/05/01 02:54:54;;;;;;;5.68;5.18;;;3.40;85.80;;;;;;5117306;27;20494;-78
2022/05/01 02:57:22;;;;;;;5.63;5.05;;;3.30;85.60;;;;;;5100423;27;20035;-78
2022/05/01 02:59:47;;;;;;;5.88;5.32;;;3.40;85.60;;;;;;5100284;27;20035;-78
2022/05/01 03:02:14;;;;;;;6.55;5.88;;;3.30;85.70;;;;;;5083386;27;20046;-80
2022/05/01 03:04:40;;;;;;;6.68;6.05;;;3.30;85.70;;;;;;5117368;27;20092;-80
2022/05/01 03:07:07;;;;;;;8.07;6.78;;;3.30;85.70;;;;;;5117146;27;20117;-79
2022/05/01 03:09:34;;;;;;;6.78;5.95;;;3.30;85.80;;;;;;5099968;27;20335;-79
2022/05/01 03:12:01;;;;;;;8.18;7.32;;;3.30;86.40;;;;;;5100018;27;20376;-79
2022/05/01 03:14:27;;;;;;;7.05;6.35;;;3.30;86.70;;;;;;5100297;27;20485;-80
2022/05/01 03:16:52;;;;;;;8.18;6.32;;;3.40;86.70;;;;;;5117091;27;20042;-79
2022/05/01 03:22:13;;;;;;;8.98;7.53;;;3.40;86.40;;;;;;5116855;27;20055;-78
2022/05/01 03:24:40;;;;;;;9.85;8.48;;;3.40;86.20;;;;;;5100162;27;20399;-80
2022/05/01 03:27:06;;;;;;;9.93;8.85;;;3.40;86.40;;;;;;5116677;27;20122;-80
2022/05/01 03:29:32;;;;;;;11.15;9.23;;;3.40;86.40;;;;;;5099628;27;20035;-81
2022/05/01 03:31:58;;;;;;;9.60;8.23;;;3.40;86.20;;;;;;5116484;27;20104;-79
2022/05/01 03:34:26;;;;;;;10.88;9.27;;;3.40;86.50;;;;;;5116804;27;20057;-82
2022/05/01 03:36:53;;;;;;;10.73;9.43;;;3.30;86.40;;;;;;5100170;27;20126;-80
2022/05/01 03:39:20;;;;;;;9.00;8.10;;;3.30;86.40;;;;;;5082776;27;20084;-82
2022/05/01 03:41:46;;;;;;;8.70;7.88;;;3.30;86.40;;;;;;5099581;27;20174;-80
2022/05/01 03:44:12;;;;;;;8.15;7.35;;;3.30;86.60;;;;;;5099661;27;20039;-82
2022/05/01 03:46:38;;;;;;;9.18;7.60;;;3.30;86.70;;;;;;5099586;27;20038;-81
2022/05/01 03:49:06;;;;;;;8.73;7.40;;;3.30;86.70;;;;;;5116375;27;20122;-81
2022/05/01 03:51:33;;;;;;;7.22;6.47;;;3.30;86.60;;;;;;5116220;27;20082;-80
2022/05/01 03:54:03;;;;;;;7.30;6.57;;;3.30;86.70;;;;;;5116513;27;20046;-79
2022/05/01 03:56:33;;;;;;;8.52;7.50;;;3.30;86.70;;;;;;5082417;27;20062;-82
2022/05/01 03:58:59;;;;;;;9.90;8.80;;;3.30;86.80;;;;;;5116015;27;20121;-80
2022/05/01 04:01:26;;;;;;;8.13;7.15;;;3.40;86.90;;;;;;5099060;27;20128;-81
2022/05/01 04:03:52;;;;;;;7.63;6.93;;;3.30;86.90;;;;;;5099062;27;20049;-82
2022/05/01 04:06:19;;;;;;;10.13;6.57;;;3.30;86.90;;;;;;5099488;27;20050;-80
2022/05/01 04:08:45;;;;;;;8.02;7.22;;;3.20;86.80;;;;;;5115868;27;20483;-78
2022/05/01 04:11:11;;;;;;;6.38;5.78;;;3.10;86.60;;;;;;5115697;27;20123;-82
2022/05/01 04:13:36;;;;;;;6.35;5.75;;;3.00;86.40;;;;;;5082025;27;20100;-78
2022/05/01 04:16:03;;;;;;;6.88;6.18;;;2.90;86.20;;;;;;5099319;27;20038;-81
2022/05/01 04:18:31;;;;;;;6.90;6.30;;;2.80;86.20;;;;;;5116072;27;20064;-78
2022/05/01 04:20:57;;;;;;;7.25;6.32;;;2.80;86.30;;;;;;5115766;27;20043;-81
2022/05/01 04:23:24;;;;;;;7.38;6.68;;;2.80;86.40;;;;;;5065491;27;20043;-79
2022/05/01 04:25:50;;;;;;;6.93;6.22;;;2.70;86.50;;;;;;5099133;27;20398;-80
2022/05/01 04:28:16;;;;;;;6.80;6.10;;;2.70;86.40;;;;;;5115850;27;20043;-80
2022/05/01 04:30:43;;;;;;;6.68;6.07;;;2.70;86.50;;;;;;5098521;28;20498;-80
2022/05/01 04:33:10;;;;;;;6.72;6.13;;;2.70;86.50;;;;;;5115756;27;20047;-82
2022/05/01 04:35:42;;;;;;;7.85;7.15;;;2.70;86.60;;;;;;5082083;27;20068;-78
2022/05/01 04:38:11;;;;;;;7.15;6.18;;;2.70;86.60;;;;;;5115510;28;20445;-81
2022/05/01 04:40:42;;;;;;;6.82;6.22;;;2.80;86.80;;;;;;5115421;28;20049;-82
2022/05/01 04:43:12;;;;;;;6.78;6.18;;;2.80;86.70;;;;;;5115564;28;20042;-79
2022/05/01 04:45:40;;;;;;;7.13;6.50;;;2.90;86.70;;;;;;5115456;28;20479;-80
2022/05/01 04:48:08;;;;;;;5.68;5.18;;;2.90;86.80;;;;;;5098640;28;20039;-80
2022/05/01 04:50:34;;;;;;;7.63;6.93;;;3.00;86.90;;;;;;5098622;28;20432;-81
2022/05/01 04:53:01;;;;;;;6.88;6.28;;;3.00;86.80;;;;;;5098468;28;20080;-82
2022/05/01 04:55:27;;;;;;;6.85;6.25;;;3.00;87.00;;;;;;5115693;28;20031;-79
2022/05/01 04:57:53;;;;;;;7.20;6.50;;;3.00;87.30;;;;;;5115391;28;20081;-79
2022/05/01 05:00:19;;;;;;;7.57;6.88;;;3.10;87.30;;;;;;5098328;28;20084;-79
2022/05/01 05:02:48;;;;;;;7.38;6.45;;;3.10;87.30;;;;;;5098532;28;20043;-80
2022/05/01 05:05:15;;;;;;;6.32;5.82;;;3.10;87.30;;;;;;5115503;28;20062;-78
2022/05/01 05:07:41;;;;;;;6.82;6.22;;;3.10;87.30;;;;;;5098287;28;20035;-82
2022/05/01 05:10:09;;;;;;;8.38;7.57;;;3.20;87.00;;;;;;5115054;28;20085;-79
2022/05/01 05:12:36;;;;;;;8.00;7.10;;;3.30;86.90;;;;;;5085020;27;20148;-81
2022/05/01 05:15:04;;;;;;;8.13;7.40;;;3.30;87.20;;;;;;5085462;27;20039;-79
2022/05/01 05:17:31;;;;;;;8.18;7.47;;;3.30;87.40;;;;;;5102613;27;20368;-79
2022/05/01 05:19:57;;;;;;;8.10;7.40;;;3.40;87.60;;;;;;5102134;27;20122;-82
2022/05/01 05:22:23;;;;;;;8.43;7.72;;;3.50;87.80;;;;;;5119177;27;20047;-81
2022/05/01 05:24:49;;;;;;;7.78;7.07;;;3.60;88.00;;;;;;5102130;27;20050;-81
2022/05/01 05:27:17;;;;;;;7.75;7.15;;;3.60;88.20;;;;;;5102008;27;20076;-78
2022/05/01 05:29:43;;;;;;;7.30;6.60;;;3.70;88.30;;;;;;5118904;27;20047;-80
2022/05/01 05:32:08;;;;;;;7.75;7.05;;;3.70;88.20;;;;;;5101798;27;20403;-81
2022/05/01 05:34:34;;;;;;;8.50;7.80;;;3.80;88.30;;;;;;5118862;27;20127;-81
2022/05/01 05:37:00;;;;;;;7.30;6.68;;;4.00;88.40;;;;;;5101876;27;20084;-79
2022/05/01 05:39:25;;;;;;;6.50;5.72;;;4.10;88.50;;;;;;5118680;27;20039;-78
2022/05/01 05:41:51;;;;;;;6.90;6.32;;;4.10;88.70;;;;;;5118944;27;20054;-78
2022/05/01 05:44:17;;;;;;;7.05;6.45;;;4.30;88.80;;;;;;5084725;27;20126;-77
2022/05/01 05:46:43;;;;;;;7.60;7.00;;;4.40;88.80;;;;;;5118902;27;20047;-77
2022/05/01 05:49:08;;;;;;;7.85;7.15;;;4.50;88.80;;;;;;5101538;27;20031;-78
2022/05/01 05:51:34;;;;;;;8.40;7.70;;;4.60;89.10;;;;;;5118739;27;20039;-78
2022/05/01 05:53:59;;;;;;;7.50;6.90;;;4.70;88.70;;;;;;5118836;27;20039;-77
2022/05/01 05:56:25;;;;;;;7.53;6.82;;;4.80;88.80;;;;;;5101533;27;20031;-81
2022/05/01 05:58:52;;;;;;;8.13;7.43;;;4.90;88.80;;;;;;5118400;27;20142;-79
2022/05/01 06:01:18;;;;;;;8.52;7.72;;;5.00;88.90;;;;;;5118566;27;20125;-78
2022/05/01 06:03:43;;;;;;;7.97;7.28;;;5.10;88.90;;;;;;5118264;27;20533;-78
2022/05/01 06:06:09;;;;;;;8.38;7.63;;;5.10;89.00;;;;;;5118368;27;20039;-80
2022/05/01 06:08:35;;;;;;;7.13;6.53;;;5.30;89.10;;;;;;5101294;27;20528;-78
2022/05/01 06:11:01;;;;;;;10.05;9.05;;;5.40;89.00;;;;;;5118411;27;20039;-81
2022/05/01 06:13:27;;;;;;;9.55;8.75;;;5.50;88.70;;;;;;5084277;27;20046;-80
2022/05/01 06:15:53;;;;;;;8.70;7.90;;;5.60;88.80;;;;;;5118377;27;20039;-78
2022/05/01 06:18:19;;;;;;;11.45;10.25;;;5.70;88.60;;;;;;5118043;27;20150;-78
2022/05/01 06:20:44;;;;;;;5.53;5.03;;;5.80;88.50;;;;;;5117981;27;20042;-80
2022/05/01 06:23:10;;;;;;;10.68;9.60;;;6.00;88.10;;;;;;5099772;27;20043;-82
2022/05/01 06:25:38;;;;;;;11.35;10.25;;;6.10;88.10;;;;;;5084508;27;20457;-81
2022/05/01 06:28:05;;;;;;;11.82;10.68;;;6.10;88.00;;;;;;5118133;27;20120;-78
2022/05/01 06:30:32;;;;;;;13.13;11.32;;;6.20;87.90;;;;;;5117561;27;20031;-82
2022/05/01 06:32:58;;;;;;;11.10;10.00;;;6.40;87.40;;;;;;5084152;27;20046;-81
2022/05/01 06:35:31;;;;;;;13.25;11.85;;;6.50;87.40;;;;;;5083970;27;20166;-76
2022/05/01 06:37:59;;;;;;;11.48;10.32;;;6.60;87.20;;;;;;5117980;27;20131;-81
2022/05/01 06:40:25;;;;;;;13.32;11.75;;;6.70;87.30;;;;;;5083620;27;20077;-78
2022/05/01 06:42:51;;;;;;;10.07;9.15;;;6.80;87.00;;;;;;5117658;27;20071;-76
2022/05/01 06:45:16;;;;;;;12.88;11.57;;;6.90;86.90;;;;;;5083688;27;20039;-77
2022/05/01 06:47:42;;;;;;;10.85;9.77;;;7.00;87.10;;;;;;5117483;27;20104;-79
2022/05/01 06:50:08;;;;;;;11.48;10.23;;;7.10;87.60;;;;;;5117108;27;20072;-79
2022/05/01 06:52:34;;;;;;;10.73;9.63;;;7.30;87.50;;;;;;5117524;27;20035;-79
2022/05/01 06:55:00;;;;;;;10.13;8.90;;;7.40;87.50;;;;;;5117450;27;20039;-76
2022/05/01 06:57:26;;;;;;;11.38;8.77;;;7.50;87.20;;;;;;5117315;27;20046;-81
2022/05/01 06:59:52;;;;;;;12.00;9.60;;;7.50;86.90;;;;;;5083414;27;20035;-77
2022/05/01 07:02:18;;;;;;;13.77;9.00;;;7.60;86.90;;;;;;5117227;27;20043;-78
2022/05/01 07:04:44;;;;;;;10.38;9.18;;;7.70;86.90;;;;;;5100262;27;20045;-80
2022/05/01 07:07:09;;;;;;;10.02;9.00;;;7.70;86.90;;;;;;5100275;27;20043;-81
2022/05/01 07:09:35;;;;;;;9.07;6.32;;;7.80;86.60;;;;;;5100018;27;20078;-79
2022/05/01 07:12:01;;;;;;;9.65;8.27;;;7.90;86.50;;;;;;5117338;27;20041;-80
2022/05/01 07:14:26;;;;;;;12.55;8.65;;;8.00;86.30;;;;;;5117193;27;20479;-79
2022/05/01 07:16:52;;;;;;;9.27;7.85;;;8.00;86.20;;;;;;5083202;27;20088;-79
2022/05/01 07:19:18;;;;;;;8.48;7.50;;;8.10;86.00;;;;;;5083054;27;20109;-78
2022/05/01 07:21:43;;;;;;;8.45;7.20;;;8.10;85.70;;;;;;5116882;27;20039;-81
2022/05/01 07:24:09;;;;;;;9.00;7.53;;;8.20;85.40;;;;;;5083200;27;20035;-79
2022/05/01 07:26:35;;;;;;;9.60;8.30;;;8.40;85.40;;;;;;5082962;27;20478;-82
2022/05/01 07:29:02;;;;;;;10.43;9.05;;;8.50;85.10;;;;;;5082791;27;20043;-79
2022/05/01 07:31:28;;;;;;;9.75;7.55;;;8.60;84.80;;;;;;5116133;27;20134;-81
2022/05/01 07:33:54;;;;;;;12.73;9.68;;;8.70;84.50;;;;;;5112861;28;20519;-81
2022/05/01 07:36:20;;;;;;;11.93;9.13;;;8.80;84.30;;;;;;5096554;28;20031;-82
2022/05/01 07:38:46;;;;;;;9.32;8.00;;;9.00;84.10;;;;;;5113095;28;20468;-77
2022/05/01 07:41:12;;;;;;;10.68;7.90;;;9.00;83.70;;;;;;5113096;28;20172;-80
2022/05/01 07:43:41;;;;;;;12.27;8.15;;;9.20;83.10;;;;;;5096218;28;20142;-79
2022/05/01 07:46:07;;;;;;;11.25;8.30;;;9.40;83.20;;;;;;5095991;28;20132;-79
2022/05/01 07:48:32;;;;;;;9.68;8.68;;;9.50;82.60;;;;;;5096264;28;20097;-78
2022/05/01 07:50:58;;;;;;;10.15;7.85;;;9.70;82.30;;;;;;5112771;28;20032;-81
2022/05/01 07:53:24;;;;;;;9.18;8.13;;;9.80;81.70;;;;;;5112831;28;20043;-81
2022/05/01 07:55:49;;;;;;;10.60;7.85;;;10.00;81.70;;;;;;5112930;28;20122;-81
2022/05/01 07:58:15;;;;;;;10.27;7.45;;;10.10;80.70;;;;;;5095826;28;20071;-79
2022/05/01 08:00:41;;;;;;;8.70;7.07;;;10.20;80.50;;;;;;5096157;28;20223;-80
2022/05/01 08:05:51;;;;;;;10.90;7.70;;;10.50;77.10;;;;;;5112615;28;20050;-80
2022/05/01 08:08:17;;;;;;;7.95;6.00;;;10.50;74.60;;;;;;5112493;28;20404;-80
2022/05/01 08:10:42;;;;;;;8.35;6.72;;;10.50;74.80;;;;;;5095543;28;20039;-80
2022/05/01 08:13:08;;;;;;;8.65;6.60;;;10.50;74.50;;;;;;5079017;28;20047;-82
2022/05/01 08:15:34;;;;;;;7.95;7.10;;;10.50;74.40;;;;;;5112537;28;20429;-80
2022/05/01 08:23:29;;;;;;;7.55;6.63;;;10.60;73.20;;;;;;5112719;28;20490;-81
2022/05/01 08:25:55;;;;;;;7.95;6.03;;;10.70;73.40;;;;;;5095544;28;20114;-79
2022/05/01 08:28:21;;;;;;;8.05;6.65;;;10.80;73.30;;;;;;5095366;28;20445;-79
2022/05/01 08:30:47;;;;;;;7.75;6.15;;;10.80;73.60;;;;;;5112517;28;20040;-81
2022/05/01 08:33:12;;;;;;;9.80;7.07;;;11.00;73.80;;;;;;5111943;28;20549;-80
2022/05/01 08:35:38;;;;;;;14.73;8.02;;;11.10;72.90;;;;;;5112235;28;20035;-81
2022/05/01 08:38:07;;;;;;;10.18;7.63;;;11.20;73.20;;;;;;5078444;28;20054;-80
2022/05/01 08:40:33;;;;;;;9.63;7.55;;;11.20;70.70;;;;;;5095344;28;20054;-79
2022/05/01 08:43:00;;;;;;;8.75;6.75;;;11.20;72.40;;;;;;5078428;28;20475;-80
2022/05/01 08:45:35;;;;;;;8.75;7.20;;;11.10;70.90;;;;;;5111689;28;20035;-81
2022/05/01 08:48:07;;;;;;;8.27;6.72;;;11.10;70.90;;;;;;5095204;28;20040;-80
2022/05/01 08:50:37;;;;;;;11.23;7.30;;;11.10;71.00;;;;;;5095002;28;20515;-79
2022/05/01 08:53:07;;;;;;;8.25;6.63;;;11.30;70.00;;;;;;5078675;28;20414;-81
2022/05/01 08:55:33;;;;;;;8.30;6.75;;;11.40;68.80;;;;;;5096015;28;20035;-79
2022/05/01 08:58:00;;;;;;;8.13;6.03;;;11.50;67.90;;;;;;5095336;28;20043;-82
2022/05/01 09:00:29;;;;;;;8.00;6.68;;;11.60;67.60;;;;;;5112183;28;20062;-78
2022/05/01 09:02:55;;;;;;;10.38;6.57;;;11.90;68.50;;;;;;5112191;28;20383;-81
2022/05/01 09:05:21;;;;;;;9.43;7.10;;;12.10;67.80;;;;;;5078246;28;20043;-80
2022/05/01 09:07:46;;;;;;;9.68;6.60;;;12.10;65.20;;;;;;5094975;28;20188;-78
2022/05/01 09:10:14;;;;;;;8.73;6.82;;;12.10;65.30;;;;;;5111767;28;20286;-80
2022/05/01 09:12:50;;;;;;;7.78;6.20;;;12.10;65.60;;;;;;5112474;28;20043;-82
2022/05/01 09:15:32;;;;;;;7.63;6.78;;;12.10;66.20;;;;;;5095212;28;20036;-82
2022/05/01 09:18:04;;;;;;;8.38;7.05;;;12.10;64.60;;;;;;5111912;28;20114;-82
2022/05/01 09:20:30;;;;;;;9.20;7.20;;;12.10;66.30;;;;;;5094974;28;20050;-85
2022/05/01 09:22:59;;;;;;;7.43;6.63;;;12.30;66.20;;;;;;5111902;28;20039;-84
2022/05/01 09:25:27;;;;;;;7.57;6.07;;;12.40;65.60;;;;;;5095095;28;20031;-84
2022/05/01 09:28:17;;;;;;;7.50;6.40;;;12.50;65.60;;;;;;5111972;28;20108;-86
2022/05/01 09:30:45;;;;;;;7.45;6.50;;;12.60;65.40;;;;;;5111863;28;20421;-84
2022/05/01 09:33:21;;;;;;;11.25;6.70;;;12.50;61.50;;;;;;5077990;28;20392;-83
2022/05/01 09:35:49;;;;;;;13.65;5.85;;;12.50;62.90;;;;;;5111886;28;20036;-80
2022/05/01 09:38:26;;;;;;;7.68;6.45;;;12.40;62.40;;;;;;5094689;28;20039;-83
2022/05/01 09:41:01;;;;;;;12.00;6.75;;;12.30;63.10;;;;;;5094723;28;20043;-83
2022/05/01 09:43:34;;;;;;;9.05;6.60;;;12.30;63.20;;;;;;5094945;28;20055;-81
2022/05/01 09:46:12;;;;;;;6.93;6.20;;;12.50;63.10;;;;;;5094729;28;20120;-84
2022/05/01 09:48:39;;;;;;;7.65;5.53;;;12.80;62.80;;;;;;5094534;28;20078;-86
2022/05/01 09:51:18;;;;;;;9.60;6.45;;;13.00;62.40;;;;;;5111414;28;20046;-85
2022/05/01 09:53:45;;;;;;;8.52;5.95;;;13.20;62.20;;;;;;5111486;28;20082;-81
2022/05/01 09:56:11;;;;;;;6.72;6.00;;;13.40;62.00;;;;;;5094750;28;20043;-83
2022/05/01 09:58:40;;;;;;;9.77;7.45;;;13.50;61.90;;;;;;5114616;28;20066;-86
2022/05/01 10:01:24;;;;;;;8.63;7.00;;;13.60;61.60;;;;;;5098664;28;20054;-84
2022/05/01 10:03:52;;;;;;;8.90;6.05;;;13.70;62.10;;;;;;5115285;28;20047;-82
2022/05/01 10:06:19;;;;;;;8.70;6.10;;;13.70;62.40;;;;;;5098293;28;20122;-85
2022/05/01 10:08:46;;;;;;;7.90;6.47;;;13.60;61.40;;;;;;5097875;28;20047;-83
2022/05/01 10:11:14;;;;;;;6.30;5.45;;;13.60;62.00;;;;;;5114917;28;20044;-80
2022/05/01 10:13:41;;;;;;;10.23;6.25;;;13.50;62.00;;;;;;5081422;28;20118;-82
2022/05/01 10:16:10;;;;;;;6.20;5.55;;;13.40;61.40;;;;;;5098138;28;20042;-83
2022/05/01 10:18:39;;;;;;;7.93;5.38;;;13.20;60.90;;;;;;5115084;28;20047;-82
2022/05/01 10:21:06;;;;;;;7.65;5.93;;;13.20;61.60;;;;;;5098032;28;20046;-85
2022/05/01 10:23:33;;;;;;;9.63;5.82;;;13.10;61.50;;;;;;5114629;28;20054;-81
2022/05/01 10:26:18;;;;;;;5.68;4.63;;;13.20;61.50;;;;;;5114587;28;20092;-85
2022/05/01 10:28:50;;;;;;;7.72;5.38;;;13.30;59.80;;;;;;5097431;28;20048;-85
2022/05/01 10:35:15;;;;;;;6.38;4.80;;;13.60;58.30;;;;;;5114605;28;20135;-85
2022/05/01 10:37:55;;;;;;;6.40;4.72;;;13.80;56.00;;;;;;5114757;28;20112;-84
2022/05/01 10:40:22;;;;;;;7.30;5.13;;;14.00;56.40;;;;;;5097396;28;20040;-84
2022/05/01 10:42:52;;;;;;;6.15;4.90;;;14.40;56.90;;;;;;5114383;28;20126;-85
2022/05/01 10:45:24;;;;;;;5.25;4.75;;;14.60;55.80;;;;;;5114518;28;20089;-84
2022/05/01 10:47:52;;;;;;;7.18;4.93;;;14.70;52.30;;;;;;5114478;28;20372;-84
2022/05/01 10:50:23;;;;;;;5.95;5.30;;;14.70;51.10;;;;;;5096955;28;20045;-82
2022/05/01 10:53:06;;;;;;;7.70;5.90;;;14.70;52.50;;;;;;5080258;28;20036;-83
2022/05/01 10:55:43;;;;;;;5.72;4.30;;;15.00;53.40;;;;;;5080815;28;20040;-84
2022/05/01 10:58:23;;;;;;;6.90;4.43;;;15.30;53.40;;;;;;5080654;28;20032;-81
2022/05/01 11:00:50;;;;;;;7.43;5.05;;;15.50;52.20;;;;;;5080129;28;20057;-86
2022/05/01 11:03:23;;;;;;;4.80;4.30;;;15.60;51.80;;;;;;5097458;28;20072;-85
2022/05/01 11:05:52;;;;;;;5.63;4.45;;;15.60;50.20;;;;;;5096981;28;20438;-83
2022/05/01 11:08:19;;;;;;;9.32;4.45;;;15.60;50.00;;;;;;5096631;28;20043;-84
2022/05/01 11:10:49;;;;;;;6.18;5.22;;;15.50;48.30;;;;;;5096610;28;20460;-84
2022/05/01 11:13:16;;;;;;;5.63;4.93;;;15.50;47.90;;;;;;5096659;28;20031;-82
2022/05/01 11:15:47;;;;;;;6.75;4.35;;;15.40;47.90;;;;;;5113936;28;20438;-83
2022/05/01 11:18:13;;;;;;;6.45;4.75;;;15.40;47.80;;;;;;5097108;28;20047;-83
2022/05/01 11:20:40;;;;;;;5.60;4.57;;;15.50;48.70;;;;;;5079511;28;20036;-81
2022/05/01 11:23:32;;;;;;;4.47;3.65;;;15.80;50.10;;;;;;5096728;28;20078;-81
2022/05/01 11:26:15;;;;;;;4.90;4.13;;;16.20;50.20;;;;;;5096444;28;20034;-84
2022/05/01 11:28:49;;;;;;;6.25;4.30;;;16.40;49.20;;;;;;5096967;28;20044;-83
2022/05/01 11:31:36;;;;;;;7.10;4.97;;;16.60;50.50;;;;;;5096273;28;20479;-86
2022/05/01 11:34:21;;;;;;;5.28;3.70;;;16.60;48.20;;;;;;5113246;28;20083;-81
2022/05/01 11:37:09;;;;;;;4.30;3.78;;;16.50;46.60;;;;;;5096168;28;20089;-85
2022/05/01 11:39:48;;;;;;;6.65;4.05;;;16.20;45.90;;;;;;5113076;28;20043;-82
2022/05/01 11:42:26;;;;;;;4.97;4.40;;;15.80;47.10;;;;;;5113081;28;20518;-84
2022/05/01 11:44:56;;;;;;;6.20;4.55;;;15.50;47.30;;;;;;5113044;28;20149;-84
2022/05/01 11:47:23;;;;;;;4.80;3.75;;;15.50;47.30;;;;;;5096445;28;20096;-82
2022/05/01 11:49:52;;;;;;;5.50;4.50;;;15.40;48.30;;;;;;5112630;28;20054;-82
2022/05/01 11:52:22;;;;;;;7.72;4.10;;;15.50;48.20;;;;;;5113045;28;20539;-83
2022/05/01 11:54:59;;;;;;;4.95;3.70;;;15.60;48.30;;;;;;5079428;28;20035;-81
2022/05/01 12:02:59;;;;;;;5.00;4.05;;;16.20;50.80;;;;;;5112736;28;20054;-83
2022/05/01 12:05:25;;;;;;;6.07;4.63;;;16.70;51.70;;;;;;5112718;28;20036;-85
2022/05/01 12:07:56;;;;;;;6.30;4.43;;;16.80;47.30;;;;;;5096144;28;20047;-83
2022/05/01 12:10:22;;;;;;;4.55;4.03;;;16.90;47.90;;;;;;5095884;28;20052;-84
2022/05/01 12:12:48;;;;;;;4.57;4.00;;;17.10;48.40;;;;;;5078853;28;20069;-84
2022/05/01 12:15:14;;;;;;;5.50;4.57;;;17.20;47.80;;;;;;5095618;28;20169;-85
2022/05/01 12:17:40;;;;;;;7.25;5.38;;;17.20;48.00;;;;;;5112456;28;20514;-84
2022/05/01 12:20:07;;;;;;;8.00;4.78;;;17.40;47.80;;;;;;5095367;28;20122;-85
2022/05/01 12:22:39;;;;;;;6.03;5.03;;;17.40;46.60;;;;;;5111373;28;20193;-83
2022/05/01 12:25:07;;;;;;;5.60;4.68;;;17.50;47.10;;;;;;5095404;28;20043;-82
2022/05/01 12:27:34;;;;;;;6.20;4.28;;;17.40;46.50;;;;;;5112555;28;20075;-82
2022/05/01 12:30:05;;;;;;;6.38;4.60;;;17.60;46.00;;;;;;5112068;28;20035;-84
2022/05/01 12:32:32;;;;;;;5.80;4.55;;;17.40;45.10;;;;;;5112359;28;20051;-83
2022/05/01 12:35:03;;;;;;;5.85;4.00;;;17.20;46.50;;;;;;5112500;28;20061;-83
2022/05/01 12:37:34;;;;;;;5.55;4.30;;;17.30;46.20;;;;;;5112189;28;20043;-83
2022/05/01 12:40:10;;;;;;;5.20;3.80;;;17.30;46.20;;;;;;5095117;28;20078;-82
2022/05/01 12:45:38;;;;;;;4.32;3.45;;;17.50;45.40;;;;;;5112007;28;20047;-82
2022/05/01 12:48:05;;;;;;;4.65;4.25;;;18.00;46.10;;;;;;5112188;28;20401;-83
2022/05/01 12:50:31;;;;;;;11.25;4.47;;;18.30;46.30;;;;;;5095290;28;20365;-82
2022/05/01 12:53:19;;;;;;;6.68;4.53;;;18.40;45.60;;;;;;5112038;28;20035;-82
2022/05/01 12:55:45;;;;;;;6.13;3.67;;;18.00;44.70;;;;;;5112035;28;20040;-81
2022/05/01 12:58:11;;;;;;;4.68;3.45;;;17.90;46.40;;;;;;5095240;28;20388;-82
2022/05/01 13:00:43;;;;;;;6.25;3.95;;;18.00;44.90;;;;;;5095181;28;20377;-82
2022/05/01 13:03:15;;;;;;;4.00;3.58;;;18.20;45.10;;;;;;5094956;28;20046;-84
2022/05/01 13:05:43;;;;;;;7.80;4.03;;;18.30;44.00;;;;;;5111898;28;20042;-84
2022/05/01 13:08:18;;;;;;;6.38;4.53;;;18.40;43.60;;;;;;5078435;28;20036;-83
2022/05/01 13:11:28;;;;;;;5.30;3.90;;;18.20;43.00;;;;;;5094865;28;20036;-83
2022/05/01 13:14:01;;;;;;;4.65;3.35;;;18.30;43.30;;;;;;5095186;28;20043;-84
2022/05/01 13:16:40;;;;;;;8.18;4.68;;;18.40;44.70;;;;;;5111880;28;20084;-82
2022/05/01 13:19:10;;;;;;;5.18;3.80;;;18.40;43.00;;;;;;5095011;28;20120;-83
2022/05/01 13:21:39;;;;;;;5.47;3.70;;;18.10;43.70;;;;;;5094934;28;20039;-84
2022/05/01 13:24:20;;;;;;;5.57;4.00;;;17.90;44.40;;;;;;5094949;28;20134;-84
2022/05/01 13:26:46;;;;;;;5.47;3.70;;;17.60;42.90;;;;;;5112213;28;20035;-83
2022/05/01 13:29:13;;;;;;;6.78;4.50;;;17.20;44.20;;;;;;5077858;28;20040;-82